Gresham, Wisconsin
Current Conditions -  °F | °C
As of 12:15 AM on Sunday 26 Oct 2014 (Local Time) from KEZS Reporting Station
Clear Clear  
Wind Chill: 46°   Ceiling: Unl
Heat Index: 48°   Visibility: 10mi
Dew Point: 25°   Wind: 5mph
Humidity: 41%   Direction: 260°W
Pressure: 29.94"   Gusts: NA
Location:  44.85°N, 88.79°W
Report Text: KEZS 260515Z AUTO 26004KT 10SM CLR 09/M04 A2994 RMK AO2 T00871040
Loading
Personal Weather Stations






























Interactive Weather Map
Tropical Storm Tracking
New forecast layout! Learn more

10-Day Weather Forecast

Advertisements
Track Severe Weather on mobile